sensor_id;sensor_type;location;lat;lon;timestamp;pressure;altitude;pressure_sealevel;temperature;humidity
54666;BME280;40566;50.006;36.180;2023-07-31T00:00:32;99296.06;;;19.06;73.46
54666;BME280;40566;50.006;36.180;2023-07-31T00:05:32;99295.00;;;19.08;73.70
54666;BME280;40566;50.006;36.180;2023-07-31T00:10:33;99294.88;;;19.10;73.77
54666;BME280;40566;50.006;36.180;2023-07-31T00:15:34;99283.25;;;19.14;73.85
54666;BME280;40566;50.006;36.180;2023-07-31T00:20:34;99287.31;;;19.18;74.11
54666;BME280;40566;50.006;36.180;2023-07-31T00:25:35;99299.38;;;19.20;74.03
54666;BME280;40566;50.006;36.180;2023-07-31T00:30:35;99288.53;;;19.25;74.13
54666;BME280;40566;50.006;36.180;2023-07-31T00:35:36;99276.16;;;19.27;74.11
54666;BME280;40566;50.006;36.180;2023-07-31T00:40:37;99272.50;;;19.30;74.13
54666;BME280;40566;50.006;36.180;2023-07-31T00:45:37;99276.28;;;19.26;74.19
54666;BME280;40566;50.006;36.180;2023-07-31T00:50:38;99288.78;;;19.22;74.43
54666;BME280;40566;50.006;36.180;2023-07-31T00:55:40;99286.16;;;19.22;74.21
54666;BME280;40566;50.006;36.180;2023-07-31T01:00:40;99287.94;;;19.21;74.29
54666;BME280;40566;50.006;36.180;2023-07-31T01:11:24;99279.13;;;19.22;74.29
54666;BME280;40566;50.006;36.180;2023-07-31T01:16:26;99287.09;;;19.21;74.52
54666;BME280;40566;50.006;36.180;2023-07-31T01:26:38;99259.94;;;19.22;74.71
54666;BME280;40566;50.006;36.180;2023-07-31T01:31:39;99268.00;;;19.19;74.77
54666;BME280;40566;50.006;36.180;2023-07-31T01:36:41;99271.59;;;19.18;74.90
54666;BME280;40566;50.006;36.180;2023-07-31T01:41:42;99272.97;;;19.11;75.00
54666;BME280;40566;50.006;36.180;2023-07-31T01:46:42;99278.53;;;19.06;74.95
54666;BME280;40566;50.006;36.180;2023-07-31T01:51:43;99284.41;;;18.97;74.64
54666;BME280;40566;50.006;36.180;2023-07-31T01:56:43;99280.66;;;18.88;75.14
54666;BME280;40566;50.006;36.180;2023-07-31T02:01:44;99286.34;;;18.82;75.28
54666;BME280;40566;50.006;36.180;2023-07-31T02:06:45;99299.59;;;18.79;75.16
54666;BME280;40566;50.006;36.180;2023-07-31T02:11:45;99290.28;;;18.75;75.04
54666;BME280;40566;50.006;36.180;2023-07-31T02:16:46;99281.59;;;18.74;75.12
54666;BME280;40566;50.006;36.180;2023-07-31T02:21:46;99275.72;;;18.71;75.13
54666;BME280;40566;50.006;36.180;2023-07-31T02:26:47;99277.38;;;18.72;74.90
54666;BME280;40566;50.006;36.180;2023-07-31T02:31:47;99274.25;;;18.67;75.00
54666;BME280;40566;50.006;36.180;2023-07-31T02:36:48;99271.94;;;18.62;75.31
54666;BME280;40566;50.006;36.180;2023-07-31T02:41:48;99275.41;;;18.62;75.29
54666;BME280;40566;50.006;36.180;2023-07-31T02:46:49;99278.03;;;18.62;75.15
54666;BME280;40566;50.006;36.180;2023-07-31T02:51:49;99275.50;;;18.61;75.22
54666;BME280;40566;50.006;36.180;2023-07-31T02:56:50;99274.03;;;18.70;75.32
54666;BME280;40566;50.006;36.180;2023-07-31T03:01:50;99275.50;;;18.74;75.31
54666;BME280;40566;50.006;36.180;2023-07-31T03:06:51;99275.41;;;18.88;75.12
54666;BME280;40566;50.006;36.180;2023-07-31T03:11:52;99268.34;;;19.01;74.96
54666;BME280;40566;50.006;36.180;2023-07-31T03:16:53;99266.78;;;19.12;74.70
54666;BME280;40566;50.006;36.180;2023-07-31T03:21:53;99266.38;;;19.29;74.30
54666;BME280;40566;50.006;36.180;2023-07-31T03:26:54;99281.03;;;19.45;74.02
54666;BME280;40566;50.006;36.180;2023-07-31T03:31:54;99262.94;;;19.53;73.97
54666;BME280;40566;50.006;36.180;2023-07-31T03:36:55;99268.34;;;19.62;73.92
54666;BME280;40566;50.006;36.180;2023-07-31T03:41:56;99270.13;;;19.75;73.26
54666;BME280;40566;50.006;36.180;2023-07-31T03:46:56;99271.34;;;19.82;73.19
54666;BME280;40566;50.006;36.180;2023-07-31T03:51:57;99274.13;;;19.92;72.77
54666;BME280;40566;50.006;36.180;2023-07-31T03:56:58;99268.09;;;20.03;72.19
54666;BME280;40566;50.006;36.180;2023-07-31T04:01:58;99273.94;;;20.06;72.00
54666;BME280;40566;50.006;36.180;2023-07-31T04:06:59;99270.47;;;20.06;71.46
54666;BME280;40566;50.006;36.180;2023-07-31T04:11:59;99272.03;;;20.08;71.37
54666;BME280;40566;50.006;36.180;2023-07-31T04:17:00;99274.44;;;20.11;71.31
54666;BME280;40566;50.006;36.180;2023-07-31T04:22:00;99280.66;;;20.21;71.12
54666;BME280;40566;50.006;36.180;2023-07-31T04:27:01;99284.25;;;20.32;71.29
54666;BME280;40566;50.006;36.180;2023-07-31T04:32:01;99283.34;;;20.44;71.01
54666;BME280;40566;50.006;36.180;2023-07-31T04:37:02;99294.56;;;20.57;70.64
54666;BME280;40566;50.006;36.180;2023-07-31T04:42:03;99299.53;;;20.62;69.87
54666;BME280;40566;50.006;36.180;2023-07-31T04:47:03;99295.09;;;20.63;69.72
54666;BME280;40566;50.006;36.180;2023-07-31T04:52:04;99293.09;;;20.77;69.37
54666;BME280;40566;50.006;36.180;2023-07-31T04:57:05;99294.06;;;20.88;68.69
54666;BME280;40566;50.006;36.180;2023-07-31T05:02:12;99286.97;;;20.77;68.51
54666;BME280;40566;50.006;36.180;2023-07-31T05:07:13;99297.38;;;20.67;68.65
54666;BME280;40566;50.006;36.180;2023-07-31T05:12:14;99314.00;;;20.68;68.86
54666;BME280;40566;50.006;36.180;2023-07-31T05:17:14;99307.53;;;20.72;68.56
54666;BME280;40566;50.006;36.180;2023-07-31T05:22:15;99302.41;;;20.70;68.86
54666;BME280;40566;50.006;36.180;2023-07-31T05:27:16;99298.94;;;20.81;68.74
54666;BME280;40566;50.006;36.180;2023-07-31T05:32:18;99295.72;;;20.89;68.70
54666;BME280;40566;50.006;36.180;2023-07-31T05:37:22;99295.38;;;20.93;68.62
54666;BME280;40566;50.006;36.180;2023-07-31T05:42:23;99304.31;;;20.91;68.50
54666;BME280;40566;50.006;36.180;2023-07-31T05:47:23;99309.47;;;20.92;68.54
54666;BME280;40566;50.006;36.180;2023-07-31T05:52:24;99317.59;;;21.00;68.47
54666;BME280;40566;50.006;36.180;2023-07-31T05:57:24;99313.41;;;20.98;68.60
54666;BME280;40566;50.006;36.180;2023-07-31T06:02:25;99316.38;;;21.05;68.60
54666;BME280;40566;50.006;36.180;2023-07-31T06:07:26;99320.81;;;21.15;68.58
54666;BME280;40566;50.006;36.180;2023-07-31T06:12:26;99312.19;;;21.25;68.33
54666;BME280;40566;50.006;36.180;2023-07-31T06:17:27;99319.72;;;21.41;68.25
54666;BME280;40566;50.006;36.180;2023-07-31T06:22:28;99316.47;;;21.48;67.96
54666;BME280;40566;50.006;36.180;2023-07-31T06:27:28;99315.63;;;21.59;67.87
54666;BME280;40566;50.006;36.180;2023-07-31T06:32:29;99316.56;;;21.69;67.46
54666;BME280;40566;50.006;36.180;2023-07-31T06:37:30;99316.88;;;21.76;67.47
54666;BME280;40566;50.006;36.180;2023-07-31T06:42:30;99331.03;;;21.75;67.37
54666;BME280;40566;50.006;36.180;2023-07-31T06:47:31;99330.53;;;21.70;67.67
54666;BME280;40566;50.006;36.180;2023-07-31T06:52:32;99330.31;;;21.73;67.71
54666;BME280;40566;50.006;36.180;2023-07-31T06:57:33;99331.31;;;21.61;67.95
54666;BME280;40566;50.006;36.180;2023-07-31T07:02:33;99323.03;;;21.65;68.23
54666;BME280;40566;50.006;36.180;2023-07-31T07:07:35;99310.78;;;21.75;67.99
54666;BME280;40566;50.006;36.180;2023-07-31T07:12:35;99321.00;;;21.69;68.05
54666;BME280;40566;50.006;36.180;2023-07-31T07:17:36;99322.91;;;21.67;68.07
54666;BME280;40566;50.006;36.180;2023-07-31T07:22:37;99321.09;;;21.67;68.20
54666;BME280;40566;50.006;36.180;2023-07-31T07:27:37;99317.75;;;21.76;68.11
54666;BME280;40566;50.006;36.180;2023-07-31T07:32:38;99311.88;;;21.73;68.33
54666;BME280;40566;50.006;36.180;2023-07-31T07:37:38;99313.78;;;21.82;68.19
54666;BME280;40566;50.006;36.180;2023-07-31T07:42:39;99318.25;;;21.70;68.68
54666;BME280;40566;50.006;36.180;2023-07-31T07:47:42;99311.25;;;21.81;68.70
54666;BME280;40566;50.006;36.180;2023-07-31T07:52:43;99316.13;;;21.85;68.76
54666;BME280;40566;50.006;36.180;2023-07-31T07:57:43;99323.63;;;22.01;68.44
54666;BME280;40566;50.006;36.180;2023-07-31T08:02:45;99327.75;;;22.15;68.53
54666;BME280;40566;50.006;36.180;2023-07-31T08:07:45;99325.34;;;22.44;67.73
54666;BME280;40566;50.006;36.180;2023-07-31T08:12:46;99337.94;;;22.41;68.38
54666;BME280;40566;50.006;36.180;2023-07-31T08:17:46;99338.66;;;22.64;67.90
54666;BME280;40566;50.006;36.180;2023-07-31T08:22:47;99325.41;;;22.75;67.31
54666;BME280;40566;50.006;36.180;2023-07-31T08:27:48;99335.25;;;22.73;67.86
54666;BME280;40566;50.006;36.180;2023-07-31T08:32:49;99317.44;;;22.96;67.06
54666;BME280;40566;50.006;36.180;2023-07-31T08:37:49;99317.25;;;23.09;66.89
54666;BME280;40566;50.006;36.180;2023-07-31T08:42:53;99304.28;;;23.36;65.86
54666;BME280;40566;50.006;36.180;2023-07-31T08:47:55;99308.56;;;23.38;65.24
54666;BME280;40566;50.006;36.180;2023-07-31T08:52:57;99321.09;;;23.45;65.54
54666;BME280;40566;50.006;36.180;2023-07-31T08:57:58;99316.75;;;23.85;64.81
54666;BME280;40566;50.006;36.180;2023-07-31T09:03:02;99316.31;;;23.99;64.05
54666;BME280;40566;50.006;36.180;2023-07-31T09:08:04;99306.19;;;24.04;64.34
54666;BME280;40566;50.006;36.180;2023-07-31T09:13:06;99314.78;;;24.06;64.17
54666;BME280;40566;50.006;36.180;2023-07-31T09:18:07;99306.88;;;24.06;64.13
54666;BME280;40566;50.006;36.180;2023-07-31T09:23:10;99311.03;;;23.89;64.27
54666;BME280;40566;50.006;36.180;2023-07-31T09:28:11;99307.16;;;23.84;64.42
54666;BME280;40566;50.006;36.180;2023-07-31T09:33:12;99309.09;;;24.01;64.06
54666;BME280;40566;50.006;36.180;2023-07-31T09:38:14;99296.53;;;24.23;63.22
54666;BME280;40566;50.006;36.180;2023-07-31T09:43:20;99304.63;;;24.31;63.29
54666;BME280;40566;50.006;36.180;2023-07-31T09:48:23;99298.09;;;24.35;63.93
54666;BME280;40566;50.006;36.180;2023-07-31T09:53:29;99299.66;;;24.75;63.05
54666;BME280;40566;50.006;36.180;2023-07-31T09:58:34;99299.63;;;25.22;61.69
54666;BME280;40566;50.006;36.180;2023-07-31T10:03:37;99295.41;;;25.29;61.67
54666;BME280;40566;50.006;36.180;2023-07-31T10:08:39;99296.44;;;25.64;61.06
54666;BME280;40566;50.006;36.180;2023-07-31T10:13:41;99287.66;;;25.82;60.59
54666;BME280;40566;50.006;36.180;2023-07-31T10:18:42;99289.16;;;25.84;61.24
54666;BME280;40566;50.006;36.180;2023-07-31T10:23:44;99285.63;;;26.11;60.36
54666;BME280;40566;50.006;36.180;2023-07-31T10:28:46;99275.69;;;26.14;60.23
54666;BME280;40566;50.006;36.180;2023-07-31T10:33:48;99281.66;;;26.16;58.86
54666;BME280;40566;50.006;36.180;2023-07-31T10:38:49;99277.53;;;25.95;58.88
54666;BME280;40566;50.006;36.180;2023-07-31T10:43:54;99275.56;;;25.97;58.16
54666;BME280;40566;50.006;36.180;2023-07-31T10:49:01;99273.75;;;26.68;56.95
54666;BME280;40566;50.006;36.180;2023-07-31T10:54:16;99269.63;;;26.74;56.36
54666;BME280;40566;50.006;36.180;2023-07-31T10:59:18;99284.47;;;26.58;56.82
54666;BME280;40566;50.006;36.180;2023-07-31T11:04:27;99271.34;;;26.57;56.47
54666;BME280;40566;50.006;36.180;2023-07-31T11:09:29;99266.28;;;26.19;57.02
54666;BME280;40566;50.006;36.180;2023-07-31T11:14:33;99267.69;;;26.05;57.16
54666;BME280;40566;50.006;36.180;2023-07-31T11:19:43;99258.88;;;25.87;56.50
54666;BME280;40566;50.006;36.180;2023-07-31T11:24:43;99267.44;;;25.63;56.18
54666;BME280;40566;50.006;36.180;2023-07-31T11:29:44;99268.13;;;25.65;56.53
54666;BME280;40566;50.006;36.180;2023-07-31T11:34:53;99256.84;;;25.81;55.54
54666;BME280;40566;50.006;36.180;2023-07-31T11:40:01;99246.50;;;25.69;55.51
54666;BME280;40566;50.006;36.180;2023-07-31T11:51:20;99242.31;;;25.49;55.98
54666;BME280;40566;50.006;36.180;2023-07-31T11:56:23;99251.25;;;25.48;56.22
54666;BME280;40566;50.006;36.180;2023-07-31T12:01:26;99247.16;;;25.36;56.93
54666;BME280;40566;50.006;36.180;2023-07-31T12:06:37;99242.63;;;25.28;57.19
54666;BME280;40566;50.006;36.180;2023-07-31T12:11:44;99238.84;;;25.21;57.19
54666;BME280;40566;50.006;36.180;2023-07-31T12:16:45;99256.00;;;25.26;57.89
54666;BME280;40566;50.006;36.180;2023-07-31T12:21:46;99246.16;;;25.37;57.72
54666;BME280;40566;50.006;36.180;2023-07-31T12:26:50;99232.31;;;25.61;57.21
54666;BME280;40566;50.006;36.180;2023-07-31T12:31:50;99240.78;;;25.82;56.74
54666;BME280;40566;50.006;36.180;2023-07-31T12:36:53;99224.88;;;26.00;56.78
54666;BME280;40566;50.006;36.180;2023-07-31T12:41:53;99222.72;;;26.22;56.07
54666;BME280;40566;50.006;36.180;2023-07-31T12:46:54;99224.78;;;26.36;56.66
54666;BME280;40566;50.006;36.180;2023-07-31T12:51:54;99210.09;;;26.76;56.02
54666;BME280;40566;50.006;36.180;2023-07-31T12:56:55;99209.59;;;27.23;54.97
54666;BME280;40566;50.006;36.180;2023-07-31T13:01:56;99196.03;;;27.59;53.96
54666;BME280;40566;50.006;36.180;2023-07-31T13:06:56;99203.00;;;27.77;54.13
54666;BME280;40566;50.006;36.180;2023-07-31T13:11:57;99195.69;;;27.54;54.56
54666;BME280;40566;50.006;36.180;2023-07-31T13:16:57;99201.53;;;26.90;56.23
54666;BME280;40566;50.006;36.180;2023-07-31T13:21:58;99193.81;;;26.37;57.20
54666;BME280;40566;50.006;36.180;2023-07-31T13:26:58;99201.38;;;25.97;57.96
54666;BME280;40566;50.006;36.180;2023-07-31T13:31:59;99201.50;;;25.78;58.53
54666;BME280;40566;50.006;36.180;2023-07-31T13:36:59;99201.38;;;25.61;58.97
54666;BME280;40566;50.006;36.180;2023-07-31T13:42:01;99194.09;;;25.45;59.30
54666;BME280;40566;50.006;36.180;2023-07-31T13:47:05;99197.00;;;25.34;59.22
54666;BME280;40566;50.006;36.180;2023-07-31T13:52:06;99207.91;;;25.21;60.09
54666;BME280;40566;50.006;36.180;2023-07-31T13:57:06;99215.91;;;25.11;60.00
54666;BME280;40566;50.006;36.180;2023-07-31T14:02:08;99212.22;;;25.04;60.66
54666;BME280;40566;50.006;36.180;2023-07-31T14:07:09;99231.13;;;24.82;60.83
54666;BME280;40566;50.006;36.180;2023-07-31T14:12:10;99236.19;;;23.50;66.32
54666;BME280;40566;50.006;36.180;2023-07-31T14:17:10;99233.72;;;22.15;70.53
54666;BME280;40566;50.006;36.180;2023-07-31T14:22:11;99210.97;;;21.51;72.49
54666;BME280;40566;50.006;36.180;2023-07-31T14:27:11;99210.47;;;21.14;73.21
54666;BME280;40566;50.006;36.180;2023-07-31T14:32:12;99214.09;;;21.34;72.91
54666;BME280;40566;50.006;36.180;2023-07-31T14:37:12;99227.38;;;21.44;73.25
54666;BME280;40566;50.006;36.180;2023-07-31T14:42:13;99229.28;;;21.42;73.60
54666;BME280;40566;50.006;36.180;2023-07-31T14:47:14;99238.00;;;21.42;74.27
54666;BME280;40566;50.006;36.180;2023-07-31T14:52:14;99237.28;;;21.51;74.69
54666;BME280;40566;50.006;36.180;2023-07-31T14:57:15;99244.09;;;21.54;75.14
54666;BME280;40566;50.006;36.180;2023-07-31T15:02:15;99260.44;;;21.69;75.71
54666;BME280;40566;50.006;36.180;2023-07-31T15:07:16;99263.06;;;21.69;75.44
54666;BME280;40566;50.006;36.180;2023-07-31T15:12:17;99250.03;;;21.67;75.08
54666;BME280;40566;50.006;36.180;2023-07-31T15:17:18;99239.00;;;21.73;74.89
54666;BME280;40566;50.006;36.180;2023-07-31T15:22:18;99224.28;;;21.92;75.22
54666;BME280;40566;50.006;36.180;2023-07-31T15:27:19;99229.84;;;22.10;75.22
54666;BME280;40566;50.006;36.180;2023-07-31T15:32:21;99224.75;;;22.18;75.36
54666;BME280;40566;50.006;36.180;2023-07-31T15:37:22;99232.66;;;22.18;75.75
54666;BME280;40566;50.006;36.180;2023-07-31T15:42:22;99245.13;;;22.16;75.84
54666;BME280;40566;50.006;36.180;2023-07-31T15:47:23;99241.44;;;22.07;76.36
54666;BME280;40566;50.006;36.180;2023-07-31T15:52:23;99240.56;;;21.97;77.12
54666;BME280;40566;50.006;36.180;2023-07-31T15:57:24;99231.25;;;21.93;77.25
54666;BME280;40566;50.006;36.180;2023-07-31T16:02:25;99232.72;;;21.86;77.29
54666;BME280;40566;50.006;36.180;2023-07-31T16:07:25;99241.81;;;21.82;77.41
54666;BME280;40566;50.006;36.180;2023-07-31T16:12:27;99257.63;;;21.82;77.70
54666;BME280;40566;50.006;36.180;2023-07-31T16:17:27;99255.16;;;21.80;77.72
54666;BME280;40566;50.006;36.180;2023-07-31T16:22:28;99258.59;;;21.81;78.01
54666;BME280;40566;50.006;36.180;2023-07-31T16:27:29;99259.44;;;21.81;78.07
54666;BME280;40566;50.006;36.180;2023-07-31T16:32:29;99261.75;;;21.74;78.24
54666;BME280;40566;50.006;36.180;2023-07-31T16:37:30;99263.78;;;21.71;78.45
54666;BME280;40566;50.006;36.180;2023-07-31T16:42:31;99261.50;;;21.66;78.44
54666;BME280;40566;50.006;36.180;2023-07-31T16:47:31;99259.25;;;21.62;78.64
54666;BME280;40566;50.006;36.180;2023-07-31T16:52:32;99262.41;;;21.55;78.67
54666;BME280;40566;50.006;36.180;2023-07-31T16:57:32;99259.19;;;21.52;78.71
54666;BME280;40566;50.006;36.180;2023-07-31T17:02:33;99256.09;;;21.47;78.92
54666;BME280;40566;50.006;36.180;2023-07-31T17:07:34;99259.53;;;21.36;79.17
54666;BME280;40566;50.006;36.180;2023-07-31T17:12:34;99254.91;;;21.28;79.21
54666;BME280;40566;50.006;36.180;2023-07-31T17:17:35;99267.22;;;21.16;79.61
54666;BME280;40566;50.006;36.180;2023-07-31T17:22:35;99281.47;;;21.14;79.47
54666;BME280;40566;50.006;36.180;2023-07-31T17:27:36;99277.41;;;21.10;79.53
54666;BME280;40566;50.006;36.180;2023-07-31T17:32:36;99282.94;;;20.95;79.68
54666;BME280;40566;50.006;36.180;2023-07-31T17:37:37;99283.88;;;20.94;79.42
54666;BME280;40566;50.006;36.180;2023-07-31T17:42:37;99280.91;;;20.88;79.27
54666;BME280;40566;50.006;36.180;2023-07-31T17:47:39;99272.63;;;20.81;79.31
54666;BME280;40566;50.006;36.180;2023-07-31T17:52:41;99291.53;;;20.75;79.38
54666;BME280;40566;50.006;36.180;2023-07-31T17:57:41;99289.31;;;20.57;80.01
54666;BME280;40566;50.006;36.180;2023-07-31T18:02:42;99297.19;;;20.57;80.09
54666;BME280;40566;50.006;36.180;2023-07-31T18:07:43;99298.66;;;20.62;79.80
54666;BME280;40566;50.006;36.180;2023-07-31T18:12:43;99299.63;;;20.60;79.60
54666;BME280;40566;50.006;36.180;2023-07-31T18:17:44;99298.28;;;20.55;79.55
54666;BME280;40566;50.006;36.180;2023-07-31T18:22:46;99296.84;;;20.51;79.74
54666;BME280;40566;50.006;36.180;2023-07-31T18:27:46;99304.84;;;20.49;79.53
54666;BME280;40566;50.006;36.180;2023-07-31T18:32:47;99315.00;;;20.43;79.61
54666;BME280;40566;50.006;36.180;2023-07-31T18:37:47;99318.91;;;20.37;79.59
54666;BME280;40566;50.006;36.180;2023-07-31T18:42:48;99314.63;;;20.36;79.87
54666;BME280;40566;50.006;36.180;2023-07-31T18:47:48;99326.78;;;20.37;79.76
54666;BME280;40566;50.006;36.180;2023-07-31T18:52:49;99320.31;;;20.30;80.18
54666;BME280;40566;50.006;36.180;2023-07-31T18:57:50;99327.72;;;20.25;80.39
54666;BME280;40566;50.006;36.180;2023-07-31T19:02:50;99315.53;;;20.24;80.55
54666;BME280;40566;50.006;36.180;2023-07-31T19:07:51;99315.31;;;20.27;80.14
54666;BME280;40566;50.006;36.180;2023-07-31T19:12:51;99313.88;;;20.23;80.18
54666;BME280;40566;50.006;36.180;2023-07-31T19:17:53;99321.03;;;20.20;80.03
54666;BME280;40566;50.006;36.180;2023-07-31T19:22:53;99317.88;;;20.15;80.44
54666;BME280;40566;50.006;36.180;2023-07-31T19:27:54;99326.50;;;20.17;80.27
54666;BME280;40566;50.006;36.180;2023-07-31T19:32:54;99312.63;;;20.15;80.29
54666;BME280;40566;50.006;36.180;2023-07-31T19:37:55;99326.00;;;20.12;80.37
54666;BME280;40566;50.006;36.180;2023-07-31T19:42:56;99323.59;;;20.09;80.60
54666;BME280;40566;50.006;36.180;2023-07-31T19:47:58;99320.16;;;20.09;80.38
54666;BME280;40566;50.006;36.180;2023-07-31T19:52:58;99330.66;;;20.09;80.58
54666;BME280;40566;50.006;36.180;2023-07-31T19:57:59;99330.03;;;20.05;80.37
54666;BME280;40566;50.006;36.180;2023-07-31T20:03:01;99322.38;;;20.02;80.38
54666;BME280;40566;50.006;36.180;2023-07-31T20:08:01;99327.97;;;19.97;80.42
54666;BME280;40566;50.006;36.180;2023-07-31T20:13:02;99322.00;;;19.95;80.32
54666;BME280;40566;50.006;36.180;2023-07-31T20:18:03;99323.06;;;19.93;80.56
54666;BME280;40566;50.006;36.180;2023-07-31T20:23:04;99330.22;;;19.91;80.33
54666;BME280;40566;50.006;36.180;2023-07-31T20:28:05;99331.50;;;19.85;80.83
54666;BME280;40566;50.006;36.180;2023-07-31T20:33:06;99328.16;;;19.83;80.95
54666;BME280;40566;50.006;36.180;2023-07-31T20:38:06;99332.34;;;19.86;80.91
54666;BME280;40566;50.006;36.180;2023-07-31T20:43:07;99330.44;;;19.88;80.89
54666;BME280;40566;50.006;36.180;2023-07-31T20:48:08;99327.47;;;19.92;80.98
54666;BME280;40566;50.006;36.180;2023-07-31T20:53:09;99335.56;;;19.89;81.31
54666;BME280;40566;50.006;36.180;2023-07-31T20:58:09;99334.50;;;19.92;81.31
54666;BME280;40566;50.006;36.180;2023-07-31T21:03:10;99335.22;;;19.94;81.04
54666;BME280;40566;50.006;36.180;2023-07-31T21:08:11;99332.50;;;19.95;81.14
54666;BME280;40566;50.006;36.180;2023-07-31T21:13:12;99321.16;;;19.95;81.08
54666;BME280;40566;50.006;36.180;2023-07-31T21:18:12;99322.63;;;19.99;81.08
54666;BME280;40566;50.006;36.180;2023-07-31T21:23:15;99309.38;;;20.00;81.13
54666;BME280;40566;50.006;36.180;2023-07-31T21:28:15;99299.91;;;19.98;81.39
54666;BME280;40566;50.006;36.180;2023-07-31T21:33:16;99310.94;;;20.03;81.41
54666;BME280;40566;50.006;36.180;2023-07-31T21:38:16;99316.41;;;20.00;81.63
54666;BME280;40566;50.006;36.180;2023-07-31T21:43:17;99327.34;;;19.94;81.74
54666;BME280;40566;50.006;36.180;2023-07-31T21:48:17;99320.09;;;19.97;81.38
54666;BME280;40566;50.006;36.180;2023-07-31T21:53:18;99322.63;;;19.99;81.37
54666;BME280;40566;50.006;36.180;2023-07-31T21:58:19;99327.13;;;19.97;81.31
54666;BME280;40566;50.006;36.180;2023-07-31T22:03:19;99321.16;;;19.95;81.47
54666;BME280;40566;50.006;36.180;2023-07-31T22:08:20;99322.09;;;19.94;81.70
54666;BME280;40566;50.006;36.180;2023-07-31T22:13:20;99334.28;;;19.95;81.67
54666;BME280;40566;50.006;36.180;2023-07-31T22:18:21;99330.59;;;19.97;81.50
54666;BME280;40566;50.006;36.180;2023-07-31T22:23:21;99325.34;;;19.97;81.82
54666;BME280;40566;50.006;36.180;2023-07-31T22:28:22;99323.78;;;19.95;81.69
54666;BME280;40566;50.006;36.180;2023-07-31T22:33:22;99333.13;;;19.99;81.85
54666;BME280;40566;50.006;36.180;2023-07-31T22:38:23;99336.47;;;20.01;81.81
54666;BME280;40566;50.006;36.180;2023-07-31T22:43:24;99328.81;;;19.98;81.71
54666;BME280;40566;50.006;36.180;2023-07-31T22:48:24;99322.94;;;19.94;82.09
54666;BME280;40566;50.006;36.180;2023-07-31T22:53:25;99315.41;;;19.90;82.20
54666;BME280;40566;50.006;36.180;2023-07-31T22:58:25;99324.00;;;19.92;81.88
54666;BME280;40566;50.006;36.180;2023-07-31T23:03:26;99321.63;;;19.89;81.87
54666;BME280;40566;50.006;36.180;2023-07-31T23:08:27;99308.81;;;19.84;81.87
54666;BME280;40566;50.006;36.180;2023-07-31T23:13:28;99317.97;;;19.78;81.89
54666;BME280;40566;50.006;36.180;2023-07-31T23:18:29;99313.16;;;19.72;81.89
54666;BME280;40566;50.006;36.180;2023-07-31T23:23:29;99316.94;;;19.68;81.80
54666;BME280;40566;50.006;36.180;2023-07-31T23:28:30;99314.75;;;19.62;81.85
54666;BME280;40566;50.006;36.180;2023-07-31T23:33:31;99302.81;;;19.58;82.04
54666;BME280;40566;50.006;36.180;2023-07-31T23:38:32;99317.72;;;19.57;81.82
54666;BME280;40566;50.006;36.180;2023-07-31T23:43:34;99315.66;;;19.50;82.06
54666;BME280;40566;50.006;36.180;2023-07-31T23:48:35;99313.66;;;19.53;82.01
54666;BME280;40566;50.006;36.180;2023-07-31T23:53:35;99313.03;;;19.50;81.81
54666;BME280;40566;50.006;36.180;2023-07-31T23:58:36;99317.31;;;19.51;81.86
